createdAt,value
2023-05-19T00:00:15.367Z,100.00
2023-05-19T00:03:21.710Z,100.00
2023-05-19T00:06:27.578Z,100.00
2023-05-19T00:09:32.175Z,100.00
2023-05-19T00:12:37.336Z,100.00
2023-05-19T00:15:41.980Z,100.00
2023-05-19T00:18:47.581Z,100.00
2023-05-19T00:21:52.021Z,100.00
2023-05-19T00:24:56.543Z,100.00
2023-05-19T00:28:02.353Z,100.00
2023-05-19T00:31:06.953Z,100.00
2023-05-19T00:34:11.340Z,100.00
2023-05-19T00:37:16.026Z,100.00
2023-05-19T00:40:21.203Z,100.00
2023-05-19T00:43:26.098Z,100.00
2023-05-19T00:46:30.818Z,100.00
2023-05-19T00:49:35.610Z,100.00
2023-05-19T00:52:40.402Z,100.00
2023-05-19T00:55:45.044Z,100.00
2023-05-19T00:58:50.904Z,100.00
2023-05-19T01:01:55.763Z,100.00
2023-05-19T01:05:00.241Z,100.00
2023-05-19T01:08:05.792Z,100.00
2023-05-19T01:11:10.758Z,100.00
2023-05-19T01:14:15.788Z,100.00
2023-05-19T01:17:26.328Z,100.00
2023-05-19T01:20:38.510Z,100.00
2023-05-19T01:23:42.932Z,100.00
2023-05-19T01:26:53.445Z,100.00
2023-05-19T01:30:36.584Z,100.00
2023-05-19T01:33:42.173Z,100.00
2023-05-19T01:36:48.944Z,100.00
2023-05-19T01:39:55.664Z,100.00
2023-05-19T01:43:01.348Z,100.00
2023-05-19T01:46:06.631Z,100.00
2023-05-19T01:49:11.393Z,100.00
2023-05-19T01:52:15.823Z,100.00
2023-05-19T01:55:21.258Z,100.00
2023-05-19T01:58:34.976Z,100.00
2023-05-19T02:01:52.728Z,100.00
2023-05-19T02:05:01.827Z,100.00
2023-05-19T02:08:13.101Z,100.00
2023-05-19T02:11:50.102Z,100.00
2023-05-19T02:14:54.669Z,100.00
2023-05-19T02:18:00.325Z,100.00
2023-05-19T02:21:05.605Z,100.00
2023-05-19T02:24:10.036Z,100.00
2023-05-19T02:27:15.817Z,100.00
2023-05-19T02:30:20.672Z,100.00
2023-05-19T02:33:25.988Z,100.00
2023-05-19T02:36:32.106Z,100.00
2023-05-19T02:39:36.645Z,100.00
2023-05-19T02:42:41.062Z,100.00
2023-05-19T02:45:45.645Z,100.00
2023-05-19T02:48:50.894Z,100.00
2023-05-19T02:51:55.435Z,100.00
2023-05-19T02:54:59.832Z,100.00
2023-05-19T02:58:05.223Z,100.00
2023-05-19T03:01:10.044Z,100.00
2023-05-19T03:04:14.837Z,100.00
2023-05-19T03:07:24.898Z,100.00
2023-05-19T03:10:29.730Z,100.00
2023-05-19T03:13:34.923Z,100.00
2023-05-19T03:16:42.068Z,100.00
2023-05-19T03:19:46.896Z,100.00
2023-05-19T03:22:51.501Z,100.00
2023-05-19T03:25:56.687Z,100.00
2023-05-19T03:29:01.462Z,100.00
2023-05-19T03:32:07.876Z,100.00
2023-05-19T03:35:14.336Z,100.00
2023-05-19T03:38:18.968Z,100.00
2023-05-19T03:41:32.773Z,100.00
2023-05-19T03:44:38.240Z,100.00
2023-05-19T03:47:43.127Z,100.00
2023-05-19T03:51:16.681Z,100.00
2023-05-19T03:54:22.813Z,100.00
2023-05-19T03:57:29.367Z,100.00
2023-05-19T04:00:34.192Z,100.00
2023-05-19T04:03:38.961Z,100.00
2023-05-19T04:06:43.652Z,100.00
2023-05-19T04:09:49.502Z,100.00
2023-05-19T04:12:54.052Z,100.00
2023-05-19T04:15:58.871Z,100.00
2023-05-19T04:19:04.165Z,100.00
2023-05-19T04:22:08.648Z,100.00
2023-05-19T04:25:13.329Z,100.00
2023-05-19T04:28:18.219Z,100.00
2023-05-19T04:31:22.908Z,100.00
2023-05-19T04:34:29.002Z,100.00
2023-05-19T04:37:38.348Z,100.00
2023-05-19T04:40:44.720Z,100.00
2023-05-19T04:43:50.056Z,100.00
2023-05-19T04:46:58.212Z,100.00
2023-05-19T04:50:04.170Z,100.00
2023-05-19T04:53:09.881Z,100.00
2023-05-19T04:56:15.573Z,100.00
2023-05-19T04:59:22.135Z,100.00
2023-05-19T05:02:30.267Z,100.00
2023-05-19T05:05:35.434Z,100.00
2023-05-19T05:08:41.526Z,100.00
2023-05-19T05:11:46.875Z,100.00
2023-05-19T05:14:51.789Z,100.00
2023-05-19T05:17:57.897Z,100.00
2023-05-19T05:21:03.316Z,100.00
2023-05-19T05:24:09.122Z,100.00
2023-05-19T05:27:14.528Z,100.00
2023-05-19T05:30:19.316Z,100.00
2023-05-19T05:33:24.897Z,100.00
2023-05-19T05:36:31.508Z,98.18
2023-05-19T05:39:37.726Z,100.00
2023-05-19T05:42:43.543Z,100.00
2023-05-19T05:45:49.170Z,93.31
2023-05-19T05:48:54.250Z,97.25
2023-05-19T05:52:05.847Z,99.17
2023-05-19T05:55:17.612Z,94.66
2023-05-19T05:58:22.695Z,93.28
2023-05-19T06:01:28.140Z,93.46
2023-05-19T06:04:32.845Z,92.15
2023-05-19T06:07:37.663Z,89.24
2023-05-19T06:10:44.572Z,93.15
2023-05-19T06:13:51.344Z,90.83
2023-05-19T06:17:21.781Z,91.04
2023-05-19T06:20:26.333Z,91.45
2023-05-19T06:23:31.255Z,88.14
2023-05-19T06:26:35.988Z,94.22
2023-05-19T06:29:41.607Z,84.86
2023-05-19T06:32:47.195Z,86.42
2023-05-19T06:35:52.074Z,88.98
2023-05-19T06:38:59.239Z,79.94
2023-05-19T06:42:06.096Z,80.24
2023-05-19T06:45:33.820Z,78.62
2023-05-19T06:48:40.854Z,79.50
2023-05-19T06:51:46.075Z,78.34
2023-05-19T06:54:51.500Z,74.45
2023-05-19T06:57:56.441Z,78.10
2023-05-19T07:01:01.237Z,76.16
2023-05-19T07:04:11.794Z,73.60
2023-05-19T07:07:16.694Z,77.76
2023-05-19T07:10:21.976Z,76.34
2023-05-19T07:13:27.776Z,78.38
2023-05-19T07:16:33.693Z,77.52
2023-05-19T07:19:38.342Z,76.26
2023-05-19T07:22:42.924Z,72.85
2023-05-19T07:25:47.506Z,74.50
2023-05-19T07:28:52.463Z,73.63
2023-05-19T07:31:57.965Z,71.48
2023-05-19T07:35:03.031Z,73.72
2023-05-19T07:38:07.817Z,69.24
2023-05-19T07:41:12.944Z,68.16
2023-05-19T07:44:17.480Z,64.95
2023-05-19T07:47:22.103Z,67.63
2023-05-19T07:50:26.815Z,65.10
2023-05-19T07:53:31.837Z,63.74
2023-05-19T07:56:36.410Z,67.95
2023-05-19T07:59:41.102Z,61.22
2023-05-19T08:02:45.812Z,64.58
2023-05-19T08:05:50.507Z,65.38
2023-05-19T08:08:55.019Z,66.61
2023-05-19T08:12:01.417Z,67.43
2023-05-19T08:15:06.732Z,65.78
2023-05-19T08:18:11.297Z,61.51
2023-05-19T08:21:16.161Z,62.93
2023-05-19T08:24:20.817Z,61.82
2023-05-19T08:27:25.454Z,61.88
2023-05-19T08:30:30.004Z,61.15
2023-05-19T08:33:34.634Z,60.76
2023-05-19T08:36:40.804Z,55.61
2023-05-19T08:39:45.493Z,57.40
2023-05-19T08:42:50.212Z,54.55
2023-05-19T08:45:55.563Z,56.31
2023-05-19T08:49:05.410Z,55.22
2023-05-19T08:52:19.531Z,55.98
2023-05-19T08:55:59.950Z,59.80
2023-05-19T08:59:04.954Z,54.58
2023-05-19T09:02:12.929Z,53.52
2023-05-19T09:05:18.147Z,52.26
2023-05-19T09:08:22.723Z,48.17
2023-05-19T09:11:27.499Z,50.61
2023-05-19T09:14:33.006Z,53.94
2023-05-19T09:17:37.742Z,53.11
2023-05-19T09:20:44.476Z,52.24
2023-05-19T09:23:49.659Z,53.90
2023-05-19T09:26:57.999Z,53.90
2023-05-19T09:30:08.608Z,51.05
2023-05-19T09:33:19.395Z,52.34
2023-05-19T09:36:24.263Z,50.61
2023-05-19T09:39:29.819Z,51.06
2023-05-19T09:42:38.034Z,49.35
2023-05-19T09:45:42.763Z,49.01
2023-05-19T09:48:47.476Z,48.11
2023-05-19T09:51:59.624Z,50.23
2023-05-19T09:55:05.233Z,49.37
2023-05-19T09:58:12.072Z,49.39
2023-05-19T10:01:18.106Z,44.22
2023-05-19T10:04:24.285Z,47.91
2023-05-19T10:07:29.831Z,45.07
2023-05-19T10:10:34.717Z,44.55
2023-05-19T10:13:40.071Z,47.05
2023-05-19T10:16:45.839Z,45.61
2023-05-19T10:19:52.211Z,44.87
2023-05-19T10:22:56.893Z,45.38
2023-05-19T10:26:05.105Z,46.57
2023-05-19T10:29:11.297Z,44.84
2023-05-19T10:32:24.115Z,46.00
2023-05-19T10:35:37.099Z,46.66
2023-05-19T10:38:53.279Z,44.04
2023-05-19T10:42:10.718Z,45.26
2023-05-19T10:45:21.344Z,45.05
2023-05-19T10:48:26.099Z,43.05
2023-05-19T10:51:32.406Z,45.76
2023-05-19T10:54:41.036Z,44.28
2023-05-19T10:57:57.013Z,44.55
2023-05-19T11:01:01.730Z,43.08
2023-05-19T11:04:10.967Z,45.00
2023-05-19T11:07:20.181Z,44.59
2023-05-19T11:10:25.159Z,46.72
2023-05-19T11:13:29.725Z,47.93
2023-05-19T11:16:34.539Z,43.18
2023-05-19T11:19:41.902Z,40.48
2023-05-19T11:23:04.069Z,43.50
2023-05-19T11:26:09.164Z,40.59
2023-05-19T11:29:14.682Z,41.75
2023-05-19T11:32:21.730Z,42.23
2023-05-19T11:35:27.458Z,42.64
2023-05-19T11:38:32.894Z,40.84
2023-05-19T11:41:40.775Z,41.50
2023-05-19T11:44:46.230Z,41.83
2023-05-19T11:48:02.028Z,42.38
2023-05-19T11:51:07.926Z,42.11
2023-05-19T11:54:12.989Z,40.93
2023-05-19T11:57:18.008Z,41.44
2023-05-19T12:00:23.170Z,41.40
2023-05-19T12:03:28.809Z,40.44
2023-05-19T12:06:34.317Z,43.87
2023-05-19T12:09:39.513Z,44.11
2023-05-19T12:12:45.206Z,42.96
2023-05-19T12:15:51.964Z,44.72
2023-05-19T12:18:56.783Z,45.12
2023-05-19T12:22:03.421Z,46.58
2023-05-19T12:25:09.271Z,45.28
2023-05-19T12:28:16.040Z,47.07
2023-05-19T12:31:23.711Z,47.61
2023-05-19T12:34:28.549Z,47.65
2023-05-19T12:37:34.855Z,49.16
2023-05-19T12:40:39.555Z,46.94
2023-05-19T12:43:44.128Z,48.89
2023-05-19T12:46:52.048Z,50.16
2023-05-19T12:49:59.777Z,48.91
2023-05-19T12:53:08.809Z,51.36
2023-05-19T12:56:14.971Z,49.39
2023-05-19T12:59:37.221Z,49.21
2023-05-19T13:03:06.830Z,51.06
2023-05-19T13:06:11.988Z,50.27
2023-05-19T13:09:17.806Z,48.35
2023-05-19T13:12:22.457Z,48.73
2023-05-19T13:15:31.639Z,45.78
2023-05-19T13:18:37.573Z,44.19
2023-05-19T13:21:42.462Z,45.73
2023-05-19T13:24:47.133Z,46.28
2023-05-19T13:27:51.906Z,42.67
2023-05-19T13:30:56.981Z,42.43
2023-05-19T13:34:02.765Z,46.49
2023-05-19T13:37:10.089Z,44.69
2023-05-19T13:40:15.733Z,44.25
2023-05-19T13:43:20.533Z,42.08
2023-05-19T13:46:33.096Z,39.88
2023-05-19T13:49:48.410Z,40.92
2023-05-19T13:52:53.741Z,43.52
2023-05-19T13:56:00.435Z,43.07
2023-05-19T13:59:05.099Z,43.46
2023-05-19T14:02:09.985Z,42.73
2023-05-19T14:05:14.726Z,42.21
2023-05-19T14:08:19.390Z,42.23
2023-05-19T14:11:24.018Z,45.14
2023-05-19T14:14:28.587Z,45.62
2023-05-19T14:17:33.498Z,46.19
2023-05-19T14:20:38.203Z,45.71
2023-05-19T14:23:42.895Z,44.26
2023-05-19T14:26:47.760Z,45.66
2023-05-19T14:29:52.863Z,46.54
2023-05-19T14:32:58.300Z,43.86
2023-05-19T14:36:05.320Z,44.76
2023-05-19T14:39:09.962Z,43.73
2023-05-19T14:42:14.695Z,44.92
2023-05-19T14:45:19.513Z,44.15
2023-05-19T14:48:24.230Z,44.49
2023-05-19T14:51:28.946Z,44.69
2023-05-19T14:54:34.010Z,44.76
2023-05-19T14:57:38.707Z,45.43
2023-05-19T15:00:43.780Z,48.03
2023-05-19T15:03:48.386Z,46.13
2023-05-19T15:07:05.983Z,47.93
2023-05-19T15:10:16.762Z,47.82
2023-05-19T15:13:21.598Z,48.79
2023-05-19T15:16:26.281Z,49.23
2023-05-19T15:19:30.932Z,50.42
2023-05-19T15:22:35.484Z,50.94
2023-05-19T15:25:40.086Z,51.56
2023-05-19T15:28:44.768Z,52.30
2023-05-19T15:31:52.423Z,51.65
2023-05-19T15:34:56.975Z,52.14
2023-05-19T15:38:06.076Z,52.82
2023-05-19T15:41:11.016Z,53.59
2023-05-19T15:44:15.745Z,53.62
2023-05-19T15:47:20.651Z,54.33
2023-05-19T15:50:26.594Z,54.09
2023-05-19T15:53:31.206Z,55.69
2023-05-19T15:56:35.873Z,54.30
2023-05-19T15:59:40.542Z,56.83
2023-05-19T16:02:45.183Z,57.47
2023-05-19T16:05:50.015Z,58.32
2023-05-19T16:08:54.753Z,58.50
2023-05-19T16:11:59.421Z,57.43
2023-05-19T16:15:04.183Z,58.89
2023-05-19T16:18:09.036Z,57.58
2023-05-19T16:21:13.653Z,58.89
2023-05-19T16:24:18.299Z,59.92
2023-05-19T16:27:22.990Z,61.00
2023-05-19T16:30:28.029Z,61.00
2023-05-19T16:33:32.778Z,61.57
2023-05-19T16:36:37.438Z,62.11
2023-05-19T16:39:44.005Z,64.63
2023-05-19T16:42:48.709Z,65.42
2023-05-19T16:45:53.512Z,65.63
2023-05-19T16:48:58.376Z,66.03
2023-05-19T16:52:03.018Z,64.56
2023-05-19T16:55:08.043Z,69.41
2023-05-19T16:58:12.780Z,67.75
2023-05-19T17:01:17.497Z,69.79
2023-05-19T17:04:22.173Z,68.88
2023-05-19T17:07:29.045Z,67.20
2023-05-19T17:10:34.095Z,70.29
2023-05-19T17:13:39.431Z,70.52
2023-05-19T17:16:44.113Z,71.88
2023-05-19T17:19:48.706Z,70.54
2023-05-19T17:22:53.331Z,72.69
2023-05-19T17:25:57.973Z,76.45
2023-05-19T17:29:02.771Z,73.59
2023-05-19T17:32:07.568Z,72.95
2023-05-19T17:35:12.217Z,71.29
2023-05-19T17:38:18.220Z,73.49
2023-05-19T17:41:22.896Z,72.71
2023-05-19T17:44:27.691Z,75.71
2023-05-19T17:47:32.267Z,77.49
2023-05-19T17:50:36.841Z,78.42
2023-05-19T17:53:42.422Z,78.76
2023-05-19T17:56:48.206Z,78.86
2023-05-19T17:59:53.036Z,79.85
2023-05-19T18:02:59.229Z,77.84
2023-05-19T18:06:03.905Z,78.99
2023-05-19T18:09:09.257Z,77.57
2023-05-19T18:12:13.974Z,81.86
2023-05-19T18:15:18.520Z,81.07
2023-05-19T18:18:22.980Z,81.11
2023-05-19T18:21:27.963Z,82.68
2023-05-19T18:24:32.472Z,83.38
2023-05-19T18:27:37.061Z,82.83
2023-05-19T18:30:41.945Z,84.44
2023-05-19T18:33:47.306Z,83.90
2023-05-19T18:36:51.988Z,85.29
2023-05-19T18:39:56.806Z,89.27
2023-05-19T18:43:01.494Z,88.17
2023-05-19T18:46:06.275Z,91.75
2023-05-19T18:49:11.849Z,91.78
2023-05-19T18:52:16.683Z,91.04
2023-05-19T18:55:21.243Z,91.61
2023-05-19T18:58:25.897Z,96.41
2023-05-19T19:01:30.648Z,94.84
2023-05-19T19:04:35.363Z,95.38
2023-05-19T19:07:41.105Z,98.47
2023-05-19T19:10:45.793Z,100.00
2023-05-19T19:13:51.521Z,97.75
2023-05-19T19:16:56.499Z,100.00
2023-05-19T19:20:02.586Z,100.00
2023-05-19T19:23:07.266Z,100.00
2023-05-19T19:26:11.887Z,100.00
2023-05-19T19:29:18.090Z,100.00
2023-05-19T19:32:23.014Z,100.00
2023-05-19T19:35:27.475Z,100.00
2023-05-19T19:38:31.897Z,100.00
2023-05-19T19:41:36.651Z,100.00
2023-05-19T19:44:41.470Z,100.00
2023-05-19T19:47:46.288Z,100.00
2023-05-19T19:50:53.511Z,100.00
2023-05-19T19:53:58.427Z,100.00
2023-05-19T19:57:02.873Z,100.00
2023-05-19T20:00:08.344Z,100.00
2023-05-19T20:03:13.058Z,100.00
2023-05-19T20:06:17.641Z,100.00
2023-05-19T20:09:22.046Z,100.00
2023-05-19T20:12:26.661Z,100.00
2023-05-19T20:15:31.573Z,100.00
2023-05-19T20:18:36.165Z,100.00
2023-05-19T20:21:40.714Z,100.00
2023-05-19T20:24:45.342Z,100.00
2023-05-19T20:27:49.816Z,100.00
2023-05-19T20:30:54.416Z,100.00
2023-05-19T20:33:59.451Z,100.00
2023-05-19T20:37:05.936Z,100.00
2023-05-19T20:40:11.046Z,100.00
2023-05-19T20:43:15.745Z,100.00
2023-05-19T20:46:20.380Z,100.00
2023-05-19T20:49:24.825Z,100.00
2023-05-19T20:52:29.511Z,100.00
2023-05-19T20:55:35.993Z,100.00
2023-05-19T20:58:40.720Z,100.00
2023-05-19T21:01:45.712Z,100.00
2023-05-19T21:04:50.818Z,100.00
2023-05-19T21:07:55.522Z,100.00
2023-05-19T21:10:59.947Z,100.00
2023-05-19T21:14:04.585Z,100.00
2023-05-19T21:17:09.276Z,100.00
2023-05-19T21:20:13.823Z,100.00
2023-05-19T21:23:18.256Z,100.00
2023-05-19T21:26:23.053Z,100.00
2023-05-19T21:29:27.827Z,100.00
2023-05-19T21:32:32.515Z,100.00
2023-05-19T21:35:37.773Z,100.00
2023-05-19T21:38:42.340Z,100.00
2023-05-19T21:41:46.899Z,100.00
2023-05-19T21:44:51.536Z,100.00
2023-05-19T21:47:56.348Z,100.00
2023-05-19T21:51:00.794Z,100.00
2023-05-19T21:54:05.254Z,100.00
2023-05-19T21:57:11.202Z,100.00
2023-05-19T22:00:15.684Z,100.00
2023-05-19T22:03:20.906Z,100.00
2023-05-19T22:06:25.325Z,100.00
2023-05-19T22:09:29.770Z,100.00
2023-05-19T22:12:34.325Z,100.00
2023-05-19T22:15:39.367Z,100.00
2023-05-19T22:18:43.859Z,100.00
2023-05-19T22:21:49.240Z,100.00
2023-05-19T22:24:54.824Z,100.00
2023-05-19T22:28:01.069Z,100.00
2023-05-19T22:31:05.948Z,100.00
2023-05-19T22:34:12.659Z,100.00
2023-05-19T22:37:17.265Z,100.00
2023-05-19T22:40:21.696Z,100.00
2023-05-19T22:43:26.716Z,100.00
2023-05-19T22:46:31.209Z,100.00
2023-05-19T22:49:35.728Z,100.00
2023-05-19T22:52:40.152Z,100.00
2023-05-19T22:55:44.701Z,100.00
2023-05-19T22:58:49.137Z,100.00
2023-05-19T23:01:53.712Z,100.00
2023-05-19T23:04:58.086Z,100.00
2023-05-19T23:08:02.703Z,100.00
2023-05-19T23:11:07.634Z,100.00
2023-05-19T23:14:12.108Z,100.00
2023-05-19T23:17:16.585Z,100.00
2023-05-19T23:20:21.154Z,100.00
2023-05-19T23:23:27.121Z,100.00
2023-05-19T23:26:32.261Z,100.00
2023-05-19T23:29:36.717Z,100.00
2023-05-19T23:32:41.259Z,100.00
2023-05-19T23:35:46.177Z,100.00
2023-05-19T23:38:50.914Z,100.00
2023-05-19T23:41:56.194Z,100.00
2023-05-19T23:45:00.612Z,100.00
2023-05-19T23:48:05.479Z,100.00
2023-05-19T23:51:10.062Z,100.00
2023-05-19T23:54:14.682Z,100.00
2023-05-19T23:57:19.085Z,100.00
